createdAt,value
2018-02-21T00:00:07.030Z,27.03
2018-02-21T00:02:37.406Z,30.10
2018-02-21T00:05:09.338Z,27.23
2018-02-21T00:07:40.554Z,26.93
2018-02-21T00:10:10.931Z,21.97
2018-02-21T00:12:41.274Z,21.80
2018-02-21T00:15:11.685Z,29.70
2018-02-21T00:17:42.023Z,23.73
2018-02-21T00:20:12.469Z,26.80
2018-02-21T00:22:42.861Z,19.53
2018-02-21T00:25:15.068Z,36.50
2018-02-21T00:27:45.517Z,23.40
2018-02-21T00:30:17.069Z,20.20
2018-02-21T00:32:47.464Z,21.43
2018-02-21T00:35:17.859Z,22.50
2018-02-21T00:37:48.252Z,26.83
2018-02-21T00:40:19.390Z,30.70
2018-02-21T00:42:50.776Z,30.70
2018-02-21T00:45:21.181Z,23.30
2018-02-21T00:47:52.380Z,27.40
2018-02-21T00:50:22.806Z,21.40
2018-02-21T00:52:53.284Z,20.80
2018-02-21T00:55:25.585Z,22.27
2018-02-21T00:57:56.014Z,22.60
2018-02-21T01:00:26.826Z,28.17
2018-02-21T01:02:57.278Z,18.47
2018-02-21T01:05:28.919Z,16.73
2018-02-21T01:07:59.424Z,22.27
2018-02-21T01:10:30.562Z,18.50
2018-02-21T01:13:02.202Z,21.13
2018-02-21T01:15:32.645Z,20.50
2018-02-21T01:18:04.495Z,18.40
2018-02-21T01:20:35.708Z,16.73
2018-02-21T01:23:06.178Z,23.93
2018-02-21T01:25:38.614Z,16.20
2018-02-21T01:28:09.078Z,17.07
2018-02-21T01:30:42.057Z,19.20
2018-02-21T01:33:13.235Z,21.53
2018-02-21T01:35:43.587Z,22.30
2018-02-21T01:38:13.992Z,20.23
2018-02-21T01:40:45.414Z,18.93
2018-02-21T01:43:17.142Z,14.20
2018-02-21T01:45:47.542Z,16.00
2018-02-21T01:48:18.095Z,14.10
2018-02-21T01:50:54.852Z,12.73
2018-02-21T01:53:25.165Z,17.43
2018-02-21T01:55:55.944Z,15.10
2018-02-21T01:58:27.134Z,16.17
2018-02-21T02:00:58.497Z,15.63
2018-02-21T02:03:28.906Z,14.43
2018-02-21T02:05:59.937Z,20.77
2018-02-21T02:08:30.307Z,28.13
2018-02-21T02:11:01.589Z,16.00
2018-02-21T02:13:32.343Z,19.83
2018-02-21T02:16:02.837Z,17.50
2018-02-21T02:18:34.395Z,16.33
2018-02-21T02:21:05.609Z,18.67
2018-02-21T02:23:36.124Z,15.07
2018-02-21T02:26:08.024Z,14.60
2018-02-21T02:28:39.240Z,15.83
2018-02-21T02:31:10.755Z,16.03
2018-02-21T02:33:41.163Z,23.17
2018-02-21T02:36:11.607Z,20.63
2018-02-21T02:38:49.090Z,17.83
2018-02-21T02:41:19.446Z,20.30
2018-02-21T02:43:50.063Z,22.53
2018-02-21T02:46:20.498Z,21.60
2018-02-21T02:48:50.946Z,18.27
2018-02-21T02:51:21.373Z,25.60
2018-02-21T02:53:51.846Z,22.47
2018-02-21T02:56:23.710Z,24.50
2018-02-21T02:58:54.141Z,22.97
2018-02-21T03:01:24.768Z,27.57
2018-02-21T03:03:55.233Z,26.20
2018-02-21T03:06:25.667Z,24.17
2018-02-21T03:08:56.094Z,19.27
2018-02-21T03:11:26.507Z,19.97
2018-02-21T03:13:57.502Z,20.43
2018-02-21T03:16:28.689Z,23.60
2018-02-21T03:19:00.772Z,26.47
2018-02-21T03:21:31.214Z,25.57
2018-02-21T03:24:01.605Z,22.43
2018-02-21T03:26:32.045Z,29.03
2018-02-21T03:29:02.834Z,32.80
2018-02-21T03:31:34.210Z,28.93
2018-02-21T03:34:04.627Z,23.57
2018-02-21T03:36:35.021Z,33.33
2018-02-21T03:39:06.497Z,25.37
2018-02-21T03:41:37.521Z,25.30
2018-02-21T03:44:10.035Z,24.77
2018-02-21T03:46:40.425Z,32.33
2018-02-21T03:49:11.746Z,23.33
2018-02-21T03:51:42.222Z,27.57
2018-02-21T03:54:12.610Z,22.70
2018-02-21T03:56:44.373Z,20.60
2018-02-21T03:59:15.558Z,25.70
2018-02-21T04:01:46.674Z,19.53
2018-02-21T04:04:17.027Z,19.20
2018-02-21T04:06:47.475Z,26.07
2018-02-21T04:09:17.866Z,27.13
2018-02-21T04:11:48.451Z,22.53
2018-02-21T04:14:19.825Z,21.90
2018-02-21T04:16:50.963Z,17.37
2018-02-21T04:19:22.485Z,22.27
2018-02-21T04:21:52.844Z,18.73
2018-02-21T04:24:24.039Z,22.77
2018-02-21T04:26:54.419Z,29.03
2018-02-21T04:29:24.834Z,28.07
2018-02-21T04:31:56.460Z,21.30
2018-02-21T04:34:26.953Z,23.30
2018-02-21T04:36:57.389Z,41.83
2018-02-21T04:39:28.138Z,21.30
2018-02-21T04:41:58.696Z,25.03
2018-02-21T04:44:29.832Z,22.43
2018-02-21T04:47:00.209Z,19.03
2018-02-21T04:49:31.001Z,21.40
2018-02-21T04:52:02.200Z,25.63
2018-02-21T04:54:36.575Z,24.00
2018-02-21T04:57:12.777Z,30.80
2018-02-21T04:59:57.740Z,20.53
2018-02-21T05:02:29.401Z,22.40
2018-02-21T05:04:59.870Z,28.40
2018-02-21T05:07:31.053Z,23.50
2018-02-21T05:10:02.666Z,30.17
2018-02-21T05:12:33.386Z,21.90
2018-02-21T05:15:04.113Z,21.27
2018-02-21T05:17:34.486Z,20.93
2018-02-21T05:20:07.918Z,22.30
2018-02-21T05:22:38.293Z,25.87
2018-02-21T05:25:10.267Z,21.37
2018-02-21T05:27:41.442Z,28.20
2018-02-21T05:30:11.850Z,23.10
2018-02-21T05:32:42.666Z,23.37
2018-02-21T05:35:13.802Z,26.33
2018-02-21T05:37:45.285Z,25.70
2018-02-21T05:40:15.680Z,23.70
2018-02-21T05:42:47.128Z,25.83
2018-02-21T05:45:19.297Z,25.03
2018-02-21T05:47:50.520Z,26.73
2018-02-21T05:50:21.006Z,24.77
2018-02-21T05:52:51.445Z,22.63
2018-02-21T05:55:21.822Z,22.90
2018-02-21T05:57:52.999Z,22.13
2018-02-21T06:00:23.408Z,26.77
2018-02-21T06:02:54.994Z,24.70
2018-02-21T06:05:25.375Z,27.27
2018-02-21T06:07:56.607Z,26.93
2018-02-21T06:10:27.810Z,28.13
2018-02-21T06:12:58.788Z,24.47
2018-02-21T06:15:29.446Z,29.60
2018-02-21T06:18:00.646Z,25.17
2018-02-21T06:20:31.412Z,26.57
2018-02-21T06:23:02.530Z,21.10
2018-02-21T06:25:33.001Z,28.37
2018-02-21T06:28:03.403Z,27.37
2018-02-21T06:30:34.614Z,23.17
2018-02-21T06:33:05.363Z,23.37
2018-02-21T06:35:35.715Z,23.53
2018-02-21T06:38:06.871Z,24.57
2018-02-21T06:40:38.538Z,21.70
2018-02-21T06:43:09.707Z,21.80
2018-02-21T06:45:40.083Z,28.97
2018-02-21T06:48:11.353Z,20.57
2018-02-21T06:50:41.879Z,28.23
2018-02-21T06:53:12.302Z,23.43
2018-02-21T06:55:42.712Z,28.53
2018-02-21T06:58:14.907Z,34.47
2018-02-21T07:00:45.349Z,24.60
2018-02-21T07:03:16.220Z,25.47
2018-02-21T07:05:46.897Z,24.60
2018-02-21T07:08:17.448Z,26.30
2018-02-21T07:10:47.853Z,26.00
2018-02-21T07:13:18.290Z,23.77
2018-02-21T07:15:48.697Z,25.40
2018-02-21T07:18:19.067Z,31.53
2018-02-21T07:20:49.723Z,22.73
2018-02-21T07:23:20.091Z,25.53
2018-02-21T07:25:50.691Z,28.30
2018-02-21T07:28:22.939Z,30.83
2018-02-21T07:30:53.417Z,31.33
2018-02-21T07:33:24.069Z,26.43
2018-02-21T07:35:54.529Z,20.97
2018-02-21T07:38:25.355Z,23.83
2018-02-21T07:40:55.734Z,34.50
2018-02-21T07:43:26.178Z,29.50
2018-02-21T07:45:56.589Z,25.33
2018-02-21T07:48:27.014Z,32.10
2018-02-21T07:50:58.391Z,25.70
2018-02-21T07:53:28.860Z,27.87
2018-02-21T07:56:00.164Z,25.80
2018-02-21T07:58:30.573Z,22.17
2018-02-21T08:01:01.028Z,24.00
2018-02-21T08:03:31.475Z,22.63
2018-02-21T08:06:01.897Z,23.10
2018-02-21T08:08:32.789Z,25.53
2018-02-21T08:11:03.302Z,20.03
2018-02-21T08:13:33.689Z,20.53
2018-02-21T08:16:04.122Z,20.27
2018-02-21T08:18:34.574Z,22.17
2018-02-21T08:21:06.954Z,24.03
2018-02-21T08:23:37.417Z,24.00
2018-02-21T08:26:08.140Z,22.53
2018-02-21T08:28:38.507Z,18.53
2018-02-21T08:31:08.925Z,22.67
2018-02-21T08:33:39.992Z,25.47
2018-02-21T08:36:11.241Z,20.27
2018-02-21T08:38:42.878Z,20.60
2018-02-21T08:41:13.270Z,20.03
2018-02-21T08:43:43.715Z,23.23
2018-02-21T08:46:14.154Z,21.90
2018-02-21T08:48:44.558Z,19.73
2018-02-21T08:51:15.260Z,23.40
2018-02-21T08:53:46.024Z,24.83
2018-02-21T08:56:16.839Z,20.13
2018-02-21T08:58:47.278Z,25.90
2018-02-21T09:01:17.677Z,24.80
2018-02-21T09:03:48.102Z,20.70
2018-02-21T09:06:18.514Z,22.80
2018-02-21T09:08:50.063Z,29.83
2018-02-21T09:11:21.225Z,39.37
2018-02-21T09:13:51.774Z,28.20
2018-02-21T09:16:22.202Z,32.67
2018-02-21T09:18:52.635Z,30.83
2018-02-21T09:21:23.108Z,26.37
2018-02-21T09:23:54.335Z,30.93
2018-02-21T09:26:25.189Z,26.10
2018-02-21T09:28:56.347Z,25.00
2018-02-21T09:31:26.839Z,28.13
2018-02-21T09:33:58.270Z,42.50
2018-02-21T09:36:28.691Z,26.93
2018-02-21T09:38:59.272Z,25.53
2018-02-21T09:41:30.552Z,27.27
2018-02-21T09:44:01.513Z,28.63
2018-02-21T09:46:32.002Z,31.90
2018-02-21T09:49:02.767Z,23.17
2018-02-21T09:51:33.286Z,27.47
2018-02-21T09:54:03.796Z,24.73
2018-02-21T09:56:34.785Z,28.60
2018-02-21T09:59:05.178Z,26.10
2018-02-21T10:01:35.638Z,29.00
2018-02-21T10:04:05.994Z,28.30
2018-02-21T10:06:37.235Z,26.60
2018-02-21T10:09:08.988Z,26.73
2018-02-21T10:11:40.198Z,28.33
2018-02-21T10:14:10.981Z,24.90
2018-02-21T10:16:42.114Z,24.87
2018-02-21T10:19:13.223Z,25.90
2018-02-21T10:21:43.691Z,29.63
2018-02-21T10:24:14.843Z,32.97
2018-02-21T10:26:46.125Z,25.63
2018-02-21T10:29:16.598Z,25.93
2018-02-21T10:31:49.897Z,25.00
2018-02-21T10:34:21.065Z,23.70
2018-02-21T10:36:51.481Z,24.37
2018-02-21T10:39:21.866Z,29.83
2018-02-21T10:41:52.314Z,22.50
2018-02-21T10:44:24.488Z,22.63
2018-02-21T10:46:55.646Z,26.47
2018-02-21T10:49:26.104Z,25.20
2018-02-21T10:51:57.231Z,25.97
2018-02-21T10:54:27.633Z,28.77
2018-02-21T10:56:59.972Z,28.77
2018-02-21T10:59:30.452Z,31.03
2018-02-21T11:02:01.121Z,26.60
2018-02-21T11:04:31.523Z,30.90
2018-02-21T11:07:02.661Z,27.50
2018-02-21T11:09:33.009Z,28.47
2018-02-21T11:12:03.490Z,33.33
2018-02-21T11:14:34.021Z,25.10
2018-02-21T11:17:04.447Z,31.17
2018-02-21T11:19:35.829Z,29.80
2018-02-21T11:22:06.251Z,26.43
2018-02-21T11:24:36.654Z,30.30
2018-02-21T11:27:07.171Z,34.40
2018-02-21T11:29:38.334Z,34.30
2018-02-21T11:32:09.922Z,30.47
2018-02-21T11:34:40.328Z,29.63
2018-02-21T11:37:10.725Z,36.37
2018-02-21T11:39:41.079Z,29.63
2018-02-21T11:42:11.526Z,39.83
2018-02-21T11:44:42.309Z,30.00
2018-02-21T11:47:13.481Z,30.57
2018-02-21T11:49:43.966Z,34.80
2018-02-21T11:52:16.060Z,36.40
2018-02-21T11:54:46.475Z,35.67
2018-02-21T11:57:17.686Z,31.40
2018-02-21T11:59:48.064Z,37.00
2018-02-21T12:02:18.620Z,37.27
2018-02-21T12:04:49.108Z,42.20
2018-02-21T12:07:19.734Z,34.40
2018-02-21T12:09:50.129Z,36.60
2018-02-21T12:12:20.526Z,37.43
2018-02-21T12:14:53.847Z,42.30
2018-02-21T12:17:24.248Z,37.07
2018-02-21T12:19:55.082Z,38.13
2018-02-21T12:22:25.524Z,38.33
2018-02-21T12:24:55.991Z,38.33
2018-02-21T12:27:27.167Z,43.40
2018-02-21T12:29:57.601Z,31.33
2018-02-21T12:32:31.684Z,43.37
2018-02-21T12:35:02.026Z,31.73
2018-02-21T12:37:32.397Z,35.27
2018-02-21T12:40:02.749Z,31.47
2018-02-21T12:42:33.934Z,30.80
2018-02-21T12:45:04.724Z,29.87
2018-02-21T12:47:35.878Z,34.27
2018-02-21T12:50:06.789Z,32.63
2018-02-21T12:52:37.985Z,38.83
2018-02-21T12:55:08.384Z,38.93
2018-02-21T12:57:38.742Z,34.30
2018-02-21T13:00:09.261Z,32.13
2018-02-21T13:02:40.431Z,32.10
2018-02-21T13:05:10.871Z,37.23
2018-02-21T13:07:41.310Z,42.20
2018-02-21T13:10:12.467Z,36.87
2018-02-21T13:12:43.659Z,30.30
2018-02-21T13:15:15.333Z,37.37
2018-02-21T13:17:46.454Z,36.43
2018-02-21T13:20:17.089Z,32.67
2018-02-21T13:22:47.627Z,38.70
2018-02-21T13:25:18.151Z,37.40
2018-02-21T13:27:48.599Z,40.03
2018-02-21T13:30:19.014Z,37.53
2018-02-21T13:32:49.815Z,40.70
2018-02-21T13:35:20.213Z,34.67
2018-02-21T13:37:52.444Z,44.30
2018-02-21T13:40:22.915Z,41.23
2018-02-21T13:42:54.117Z,31.30
2018-02-21T13:45:24.731Z,35.70
2018-02-21T13:47:56.256Z,37.40
2018-02-21T13:50:28.031Z,137.67
2018-02-21T13:52:58.954Z,43.10
2018-02-21T13:55:29.427Z,39.27
2018-02-21T13:57:59.831Z,37.93
2018-02-21T14:00:31.194Z,38.00
2018-02-21T14:03:02.043Z,32.27
2018-02-21T14:05:32.471Z,43.43
2018-02-21T14:08:03.192Z,34.77
2018-02-21T14:10:34.471Z,32.90
2018-02-21T14:13:05.654Z,41.43
2018-02-21T14:15:36.968Z,39.83
2018-02-21T14:18:08.169Z,43.00
2018-02-21T14:20:40.017Z,58.40
2018-02-21T14:23:10.494Z,50.87
2018-02-21T14:25:41.641Z,53.70
2018-02-21T14:28:13.322Z,57.77
2018-02-21T14:30:43.743Z,53.13
2018-02-21T14:33:15.594Z,58.20
2018-02-21T14:35:46.750Z,48.60
2018-02-21T14:38:17.790Z,44.77
2018-02-21T14:40:48.240Z,51.77
2018-02-21T14:43:18.722Z,56.13
2018-02-21T14:45:49.950Z,63.53
2018-02-21T14:48:20.406Z,59.30
2018-02-21T14:50:52.892Z,55.43
2018-02-21T14:53:23.314Z,48.50
2018-02-21T14:55:55.642Z,55.83
2018-02-21T14:58:27.254Z,52.93
2018-02-21T15:00:58.689Z,60.40
2018-02-21T15:03:29.434Z,51.37
2018-02-21T15:05:59.856Z,50.80
2018-02-21T15:08:33.275Z,51.70
2018-02-21T15:11:03.790Z,47.07
2018-02-21T15:13:34.254Z,46.30
2018-02-21T15:16:05.001Z,61.43
2018-02-21T15:18:35.431Z,46.63
2018-02-21T15:21:06.196Z,56.63
2018-02-21T15:23:38.119Z,50.00
2018-02-21T15:26:08.514Z,51.50
2018-02-21T15:28:39.268Z,49.03
2018-02-21T15:31:09.717Z,63.40
2018-02-21T15:33:40.140Z,59.93
2018-02-21T15:36:10.579Z,57.27
2018-02-21T15:38:42.144Z,57.63
2018-02-21T15:41:12.665Z,47.53
2018-02-21T15:43:43.918Z,52.50
2018-02-21T15:46:15.182Z,53.27
2018-02-21T15:48:45.678Z,40.87
2018-02-21T15:51:17.198Z,40.93
2018-02-21T15:53:48.243Z,51.90
2018-02-21T15:56:18.766Z,47.63
2018-02-21T15:58:49.247Z,59.73
2018-02-21T16:01:19.719Z,51.80
2018-02-21T16:03:50.170Z,48.60
2018-02-21T16:06:20.617Z,51.33
2018-02-21T16:08:51.824Z,60.73
2018-02-21T16:11:22.265Z,52.53
2018-02-21T16:13:52.619Z,55.67
2018-02-21T16:16:23.834Z,54.00
2018-02-21T16:18:55.491Z,47.47
2018-02-21T16:21:26.438Z,47.47
2018-02-21T16:23:56.843Z,44.83
2018-02-21T16:26:28.714Z,50.17
2018-02-21T16:28:59.111Z,44.67
2018-02-21T16:31:29.543Z,47.47
2018-02-21T16:34:00.137Z,42.83
2018-02-21T16:36:31.482Z,57.03
2018-02-21T16:39:03.524Z,47.63
2018-02-21T16:41:35.836Z,38.90
2018-02-21T16:44:06.233Z,57.70
2018-02-21T16:46:36.760Z,43.50
2018-02-21T16:49:07.942Z,49.83
2018-02-21T16:51:38.835Z,52.60
2018-02-21T16:54:15.163Z,53.57
2018-02-21T16:56:45.757Z,43.83
2018-02-21T16:59:16.173Z,40.87
2018-02-21T17:01:46.650Z,41.30
2018-02-21T17:04:17.118Z,45.23
2018-02-21T17:06:48.262Z,40.07
2018-02-21T17:09:19.705Z,38.77
2018-02-21T17:11:50.854Z,39.07
2018-02-21T17:14:22.072Z,42.37
2018-02-21T17:16:52.534Z,42.80
2018-02-21T17:19:23.093Z,39.10
2018-02-21T17:21:53.893Z,44.17
2018-02-21T17:24:25.019Z,42.53
2018-02-21T17:26:56.481Z,40.70
2018-02-21T17:29:27.680Z,45.97
2018-02-21T17:31:58.045Z,40.83
2018-02-21T17:34:29.276Z,55.27
2018-02-21T17:36:59.723Z,42.63
2018-02-21T17:39:31.403Z,43.77
2018-02-21T17:42:01.822Z,46.03
2018-02-21T17:44:32.961Z,39.40
2018-02-21T17:47:03.431Z,45.83
2018-02-21T17:49:33.798Z,39.73
2018-02-21T17:52:05.146Z,43.20
2018-02-21T17:54:36.342Z,29.10
2018-02-21T17:57:07.853Z,33.93
2018-02-21T17:59:39.643Z,28.07
2018-02-21T18:02:10.484Z,27.47
2018-02-21T18:04:41.786Z,39.13
2018-02-21T18:07:13.058Z,24.60
2018-02-21T18:09:43.865Z,25.57
2018-02-21T18:12:16.349Z,22.67
2018-02-21T18:14:47.518Z,35.63
2018-02-21T18:17:17.969Z,28.43
2018-02-21T18:19:48.398Z,30.63
2018-02-21T18:22:19.012Z,31.80
2018-02-21T18:24:49.401Z,19.43
2018-02-21T18:27:21.039Z,29.13
2018-02-21T18:29:51.469Z,26.23
2018-02-21T18:32:22.733Z,24.63
2018-02-21T18:34:53.946Z,24.73
2018-02-21T18:40:34.260Z,25.07
2018-02-21T18:43:04.714Z,18.23
2018-02-21T18:45:34.453Z,22.60
2018-02-21T18:48:04.189Z,22.17
2018-02-21T18:50:35.176Z,25.33
2018-02-21T18:53:04.915Z,21.63
2018-02-21T18:55:34.618Z,22.30
2018-02-21T18:58:04.303Z,18.83
2018-02-21T19:00:34.006Z,17.00
2018-02-21T19:03:03.743Z,21.97
2018-02-21T19:05:33.522Z,22.53
2018-02-21T19:08:03.178Z,23.00
2018-02-21T19:10:32.837Z,17.67
2018-02-21T19:13:02.496Z,29.03
2018-02-21T19:15:32.227Z,22.97
2018-02-21T19:18:02.663Z,26.63
2018-02-21T19:20:33.083Z,29.17
2018-02-21T19:23:03.609Z,23.33
2018-02-21T19:25:33.923Z,17.83
2018-02-21T19:28:03.650Z,21.77
2018-02-21T19:30:34.047Z,16.80
2018-02-21T19:33:03.739Z,21.03
2018-02-21T19:35:34.431Z,22.30
2018-02-21T19:38:04.255Z,26.03
2018-02-21T19:40:33.917Z,21.07
2018-02-21T19:43:03.598Z,19.60
2018-02-21T19:45:33.275Z,27.53
2018-02-21T19:48:02.993Z,23.53
2018-02-21T19:50:32.663Z,28.80
2018-02-21T19:53:02.344Z,22.50
2018-02-21T19:55:31.994Z,25.40
2018-02-21T19:58:02.518Z,23.23
2018-02-21T20:00:32.208Z,23.63
2018-02-21T20:03:01.883Z,29.40
2018-02-21T20:05:31.639Z,18.63
2018-02-21T20:08:01.338Z,28.63
2018-02-21T20:10:30.991Z,27.23
2018-02-21T20:13:00.713Z,34.27
2018-02-21T20:15:30.407Z,32.63
2018-02-21T20:18:00.456Z,20.87
2018-02-21T20:20:30.137Z,25.13
2018-02-21T20:23:00.194Z,23.17
2018-02-21T20:25:29.930Z,41.80
2018-02-21T20:28:00.473Z,34.30
2018-02-21T20:30:30.887Z,34.27
2018-02-21T20:33:00.581Z,26.23
2018-02-21T20:35:30.211Z,32.33
2018-02-21T20:38:00.985Z,25.17
2018-02-21T20:40:30.649Z,26.33
2018-02-21T20:43:00.329Z,30.10
2018-02-21T20:45:30.046Z,30.60
2018-02-21T20:47:59.740Z,22.90
2018-02-21T20:50:30.090Z,29.40
2018-02-21T20:52:59.798Z,24.73
2018-02-21T20:55:29.502Z,27.87
2018-02-21T20:57:59.198Z,26.03
2018-02-21T21:00:28.966Z,28.27
2018-02-21T21:02:58.714Z,27.67
2018-02-21T21:05:28.564Z,31.57
2018-02-21T21:07:58.252Z,29.90
2018-02-21T21:10:28.791Z,24.50
2018-02-21T21:12:59.217Z,21.80
2018-02-21T21:15:28.951Z,28.43
2018-02-21T21:17:59.418Z,24.07
2018-02-21T21:20:29.165Z,29.73
2018-02-21T21:23:00.147Z,33.80
2018-02-21T21:25:29.820Z,29.93
2018-02-21T21:27:59.483Z,32.83
2018-02-21T21:30:29.160Z,26.73
2018-02-21T21:32:59.568Z,37.70
2018-02-21T21:35:29.282Z,29.67
2018-02-21T21:38:00.615Z,31.90
2018-02-21T21:40:30.361Z,28.27
2018-02-21T21:43:00.136Z,28.33
2018-02-21T21:45:29.806Z,34.80
2018-02-21T21:47:59.465Z,34.57
2018-02-21T21:50:29.152Z,34.77
2018-02-21T21:52:58.910Z,44.70
2018-02-21T21:55:28.686Z,38.60
2018-02-21T21:57:58.664Z,32.57
2018-02-21T22:00:28.390Z,34.40
2018-02-21T22:02:58.716Z,32.90
2018-02-21T22:05:28.418Z,44.23
2018-02-21T22:07:58.085Z,33.10
2018-02-21T22:10:27.778Z,28.30
2018-02-21T22:12:58.246Z,37.70
2018-02-21T22:15:27.884Z,38.07
2018-02-21T22:17:57.621Z,30.57
2018-02-21T22:20:28.130Z,37.80
2018-02-21T22:22:57.903Z,33.20
2018-02-21T22:25:27.563Z,35.37
2018-02-21T22:27:57.303Z,39.90
2018-02-21T22:30:26.965Z,35.60
2018-02-21T22:32:56.638Z,30.67
2018-02-21T22:35:26.277Z,30.60
2018-02-21T22:37:55.949Z,40.23
2018-02-21T22:40:25.641Z,33.50
2018-02-21T22:42:56.183Z,41.33
2018-02-21T22:45:25.936Z,45.97
2018-02-21T22:47:55.610Z,47.87
2018-02-21T22:50:25.335Z,41.17
2018-02-21T22:52:55.055Z,32.90
2018-02-21T22:55:24.782Z,40.87
2018-02-21T22:57:55.315Z,35.93
2018-02-21T23:00:25.210Z,33.30
2018-02-21T23:02:54.908Z,33.00
2018-02-21T23:05:24.575Z,34.70
2018-02-21T23:07:54.257Z,39.50
2018-02-21T23:10:23.937Z,38.10
2018-02-21T23:12:53.614Z,42.43
2018-02-21T23:15:23.269Z,40.10
2018-02-21T23:17:53.025Z,38.40
2018-02-21T23:20:22.682Z,36.93
2018-02-21T23:22:52.377Z,45.20
2018-02-21T23:25:22.119Z,57.27
2018-02-21T23:27:52.032Z,43.03
2018-02-21T23:30:21.729Z,41.00
2018-02-21T23:32:51.494Z,44.33
2018-02-21T23:35:21.160Z,39.33
2018-02-21T23:37:51.197Z,45.70
2018-02-21T23:40:22.044Z,44.63
2018-02-21T23:42:52.560Z,52.80
2018-02-21T23:45:22.994Z,49.80
2018-02-21T23:47:53.445Z,47.90
2018-02-21T23:50:24.026Z,46.70
2018-02-21T23:52:53.752Z,39.57
2018-02-21T23:55:24.401Z,48.73
2018-02-21T23:57:54.416Z,77.20
